createdAt,value
2023-05-19T00:01:50.240Z,100860.25
2023-05-19T00:04:52.202Z,100894.06
2023-05-19T00:07:58.759Z,100899.31
2023-05-19T00:11:01.895Z,100908.94
2023-05-19T00:14:06.146Z,100899.41
2023-05-19T00:17:08.642Z,100909.00
2023-05-19T00:20:12.227Z,100917.69
2023-05-19T00:23:13.945Z,100913.34
2023-05-19T00:26:15.773Z,100920.28
2023-05-19T00:29:26.612Z,100911.59
2023-05-19T00:32:28.422Z,100898.53
2023-05-19T00:35:30.406Z,100907.28
2023-05-19T00:38:35.381Z,100817.72
2023-05-19T00:41:37.216Z,100915.13
2023-05-19T00:44:41.820Z,100907.31
2023-05-19T00:47:43.898Z,100912.56
2023-05-19T00:50:46.214Z,100909.06
2023-05-19T00:53:51.089Z,100923.94
2023-05-19T00:56:54.607Z,100928.34
2023-05-19T00:59:56.595Z,100910.78
2023-05-19T01:02:58.614Z,100917.81
2023-05-19T01:06:05.083Z,100904.72
2023-05-19T01:09:07.767Z,100921.38
2023-05-19T01:12:09.741Z,100913.47
2023-05-19T01:15:12.218Z,100931.94
2023-05-19T01:18:24.774Z,100919.84
2023-05-19T01:21:44.458Z,100922.41
2023-05-19T01:24:58.448Z,100917.19
2023-05-19T01:28:06.514Z,100909.38
2023-05-19T01:31:10.041Z,100912.78
2023-05-19T01:34:14.690Z,100908.59
2023-05-19T01:37:17.894Z,100905.91
2023-05-19T01:40:23.000Z,100896.34
2023-05-19T01:43:27.570Z,100899.81
2023-05-19T01:46:29.391Z,100908.53
2023-05-19T01:49:31.271Z,100905.97
2023-05-19T01:52:33.158Z,100900.75
2023-05-19T01:55:45.541Z,100913.06
2023-05-19T01:58:53.046Z,100907.81
2023-05-19T02:02:01.168Z,100921.84
2023-05-19T02:05:40.747Z,100913.94
2023-05-19T02:08:51.056Z,100910.44
2023-05-19T02:12:01.174Z,100912.22
2023-05-19T02:15:26.118Z,100913.97
2023-05-19T02:18:30.024Z,100911.34
2023-05-19T02:21:31.957Z,100911.41
2023-05-19T02:24:33.778Z,100919.31
2023-05-19T02:27:37.397Z,100895.03
2023-05-19T02:30:39.126Z,100917.63
2023-05-19T02:33:41.373Z,100918.50
2023-05-19T02:36:43.756Z,100929.03
2023-05-19T02:39:45.570Z,100922.94
2023-05-19T02:42:47.440Z,100911.69
2023-05-19T02:45:49.242Z,100943.13
2023-05-19T02:48:51.520Z,100929.22
2023-05-19T02:51:53.436Z,100941.53
2023-05-19T02:54:55.111Z,100924.84
2023-05-19T02:57:56.892Z,100941.41
2023-05-19T03:00:58.665Z,100937.03
2023-05-19T03:04:00.740Z,100940.56
2023-05-19T03:07:03.361Z,100937.09
2023-05-19T03:10:06.818Z,100907.44
2023-05-19T03:13:08.601Z,100930.13
2023-05-19T03:16:10.434Z,100950.22
2023-05-19T03:19:12.214Z,100916.13
2023-05-19T03:22:14.003Z,100946.56
2023-05-19T03:25:15.844Z,100950.00
2023-05-19T03:28:17.682Z,100956.94
2023-05-19T03:31:19.487Z,100945.56
2023-05-19T03:34:22.483Z,100948.13
2023-05-19T03:37:25.290Z,100942.81
2023-05-19T03:40:27.188Z,100954.97
2023-05-19T03:43:35.901Z,100965.50
2023-05-19T03:46:39.965Z,100956.69
2023-05-19T03:50:01.235Z,100961.03
2023-05-19T03:53:26.609Z,100963.56
2023-05-19T03:56:28.832Z,100962.66
2023-05-19T03:59:31.397Z,100966.13
2023-05-19T04:02:33.301Z,100967.78
2023-05-19T04:05:35.241Z,100966.84
2023-05-19T04:08:36.977Z,100973.75
2023-05-19T04:11:39.787Z,100973.66
2023-05-19T04:14:41.580Z,100962.28
2023-05-19T04:17:45.226Z,100972.63
2023-05-19T04:20:47.206Z,100970.75
2023-05-19T04:23:49.034Z,100967.91
2023-05-19T04:26:50.993Z,100964.28
2023-05-19T04:29:54.824Z,100973.81
2023-05-19T04:32:58.236Z,100969.34
2023-05-19T04:36:05.525Z,100959.63
2023-05-19T04:39:10.089Z,100960.34
2023-05-19T04:42:13.900Z,100961.16
2023-05-19T04:45:15.739Z,100961.06
2023-05-19T04:48:24.361Z,100965.34
2023-05-19T04:51:30.273Z,100973.00
2023-05-19T04:54:35.735Z,100971.88
2023-05-19T04:57:38.935Z,100965.59
2023-05-19T05:00:41.965Z,100972.38
2023-05-19T05:03:44.660Z,100966.06
2023-05-19T05:06:48.145Z,100971.06
2023-05-19T05:09:50.505Z,100966.41
2023-05-19T05:12:52.701Z,100930.50
2023-05-19T05:15:56.247Z,100967.59
2023-05-19T05:18:58.376Z,100939.03
2023-05-19T05:22:00.664Z,100956.41
2023-05-19T05:25:03.444Z,100966.06
2023-05-19T05:28:06.004Z,100963.16
2023-05-19T05:31:10.143Z,100963.81
2023-05-19T05:34:12.402Z,100960.38
2023-05-19T05:37:15.508Z,100958.53
2023-05-19T05:40:17.882Z,100955.75
2023-05-19T05:43:19.958Z,100961.34
2023-05-19T05:46:28.083Z,100959.91
2023-05-19T05:49:30.976Z,100945.88
2023-05-19T05:52:34.576Z,100977.28
2023-05-19T05:55:36.735Z,100972.13
2023-05-19T05:58:40.786Z,100971.28
2023-05-19T06:01:44.050Z,100974.66
2023-05-19T06:04:46.625Z,100985.66
2023-05-19T06:07:48.441Z,100989.28
2023-05-19T06:10:55.902Z,100982.69
2023-05-19T06:13:58.075Z,100982.50
2023-05-19T06:17:26.293Z,100980.28
2023-05-19T06:20:28.111Z,100993.13
2023-05-19T06:23:31.313Z,100984.31
2023-05-19T06:26:33.166Z,100989.63
2023-05-19T06:29:35.646Z,100992.38
2023-05-19T06:32:42.612Z,100993.69
2023-05-19T06:35:44.575Z,100997.69
2023-05-19T06:38:46.454Z,101005.84
2023-05-19T06:41:48.552Z,100997.88
2023-05-19T06:45:10.869Z,100975.09
2023-05-19T06:48:13.476Z,101005.34
2023-05-19T06:51:21.669Z,100995.63
2023-05-19T06:54:26.828Z,100994.69
2023-05-19T06:57:28.781Z,100995.03
2023-05-19T07:00:32.453Z,101002.22
2023-05-19T07:03:35.858Z,100985.97
2023-05-19T07:06:38.523Z,100984.91
2023-05-19T07:09:41.035Z,100976.91
2023-05-19T07:12:43.230Z,100963.75
2023-05-19T07:15:45.277Z,100996.06
2023-05-19T07:18:47.587Z,100987.19
2023-05-19T07:21:49.700Z,100986.09
2023-05-19T07:24:51.526Z,100981.28
2023-05-19T07:27:53.413Z,100948.53
2023-05-19T07:30:55.243Z,100985.25
2023-05-19T07:33:57.865Z,100967.09
2023-05-19T07:36:59.575Z,100941.78
2023-05-19T07:40:01.393Z,100994.50
2023-05-19T07:43:03.218Z,100888.47
2023-05-19T07:46:06.185Z,100976.31
2023-05-19T07:49:07.998Z,100983.31
2023-05-19T07:52:09.736Z,100966.31
2023-05-19T07:55:13.635Z,100944.78
2023-05-19T07:58:15.709Z,100969.50
2023-05-19T08:01:17.446Z,100961.22
2023-05-19T08:04:19.261Z,100962.91
2023-05-19T08:07:21.125Z,100951.97
2023-05-19T08:10:22.898Z,100915.22
2023-05-19T08:13:24.710Z,100946.56
2023-05-19T08:16:26.889Z,100943.34
2023-05-19T08:19:28.814Z,100943.38
2023-05-19T08:22:30.784Z,100939.13
2023-05-19T08:25:32.799Z,100957.13
2023-05-19T08:28:34.605Z,100941.56
2023-05-19T08:31:36.656Z,100948.56
2023-05-19T08:34:38.389Z,100947.38
2023-05-19T08:37:40.996Z,100940.84
2023-05-19T08:40:43.533Z,100931.91
2023-05-19T08:43:45.541Z,100935.59
2023-05-19T08:46:48.141Z,100940.56
2023-05-19T08:49:53.108Z,100933.03
2023-05-19T08:53:34.092Z,100937.56
2023-05-19T08:56:37.805Z,100941.97
2023-05-19T08:59:41.131Z,100938.19
2023-05-19T09:02:50.776Z,100948.69
2023-05-19T09:06:04.147Z,100948.59
2023-05-19T09:09:06.348Z,100937.31
2023-05-19T09:12:08.327Z,100937.75
2023-05-19T09:15:10.894Z,100891.59
2023-05-19T09:18:15.174Z,100848.81
2023-05-19T09:21:17.681Z,100944.53
2023-05-19T09:24:19.792Z,100934.56
2023-05-19T09:27:25.333Z,100925.13
2023-05-19T09:30:27.181Z,100910.06
2023-05-19T09:33:30.062Z,100923.56
2023-05-19T09:36:32.274Z,100926.63
2023-05-19T09:39:34.502Z,100922.38
2023-05-19T09:42:40.736Z,100918.44
2023-05-19T09:45:42.760Z,100917.63
2023-05-19T09:48:44.966Z,100923.41
2023-05-19T09:51:49.053Z,100919.47
2023-05-19T09:54:51.949Z,100880.06
2023-05-19T09:57:56.609Z,100913.06
2023-05-19T10:00:59.521Z,100908.09
2023-05-19T10:04:01.900Z,100893.66
2023-05-19T10:07:06.207Z,100900.06
2023-05-19T10:10:14.095Z,100896.00
2023-05-19T10:13:16.686Z,100892.38
2023-05-19T10:16:21.870Z,100893.50
2023-05-19T10:19:25.633Z,100897.72
2023-05-19T10:22:28.521Z,100902.66
2023-05-19T10:25:35.490Z,100893.88
2023-05-19T10:28:41.160Z,100906.47
2023-05-19T10:31:44.650Z,100906.97
2023-05-19T10:35:14.112Z,100906.03
2023-05-19T10:38:34.120Z,100899.63
2023-05-19T10:42:13.922Z,100890.28
2023-05-19T10:45:22.441Z,100894.91
2023-05-19T10:48:24.630Z,100888.31
2023-05-19T10:51:33.361Z,100901.16
2023-05-19T10:54:47.429Z,100891.84
2023-05-19T10:57:58.605Z,100895.78
2023-05-19T11:01:01.600Z,100881.88
2023-05-19T11:04:09.361Z,100887.06
2023-05-19T11:07:15.589Z,100882.88
2023-05-19T11:10:23.424Z,100886.50
2023-05-19T11:13:28.526Z,100887.47
2023-05-19T11:16:32.531Z,100876.66
2023-05-19T11:19:37.172Z,100877.72
2023-05-19T11:22:40.088Z,100882.09
2023-05-19T11:25:50.014Z,100868.69
2023-05-19T11:28:52.169Z,100869.06
2023-05-19T11:31:54.599Z,100867.88
2023-05-19T11:34:57.675Z,100864.09
2023-05-19T11:37:59.594Z,100865.19
2023-05-19T11:41:01.561Z,100864.22
2023-05-19T11:44:03.397Z,100861.75
2023-05-19T11:47:05.912Z,100859.81
2023-05-19T11:50:12.763Z,100854.69
2023-05-19T11:53:16.589Z,100854.06
2023-05-19T11:56:18.322Z,100853.31
2023-05-19T11:59:32.763Z,100856.03
2023-05-19T12:02:36.378Z,100858.03
2023-05-19T12:05:44.922Z,100812.78
2023-05-19T12:08:47.097Z,100844.00
2023-05-19T12:11:49.902Z,100838.94
2023-05-19T12:14:53.615Z,100838.22
2023-05-19T12:18:00.569Z,100842.41
2023-05-19T12:21:02.917Z,100827.22
2023-05-19T12:24:06.115Z,100796.09
2023-05-19T12:27:19.605Z,100842.66
2023-05-19T12:30:29.024Z,100840.09
2023-05-19T12:33:34.915Z,100771.84
2023-05-19T12:36:41.449Z,100821.72
2023-05-19T12:39:44.125Z,100820.72
2023-05-19T12:42:46.282Z,100831.38
2023-05-19T12:45:48.565Z,100799.81
2023-05-19T12:48:50.956Z,100828.69
2023-05-19T12:51:53.949Z,100828.19
2023-05-19T12:55:14.783Z,100824.03
2023-05-19T12:58:17.008Z,100825.16
2023-05-19T13:01:18.936Z,100821.09
2023-05-19T13:04:20.858Z,100803.72
2023-05-19T13:07:22.621Z,100809.34
2023-05-19T13:10:27.106Z,100811.06
2023-05-19T13:13:29.138Z,100810.56
2023-05-19T13:16:30.910Z,100809.34
2023-05-19T13:19:32.910Z,100804.19
2023-05-19T13:22:34.710Z,100811.56
2023-05-19T13:25:36.872Z,100787.06
2023-05-19T13:28:38.669Z,100782.28
2023-05-19T13:31:40.526Z,100790.25
2023-05-19T13:34:42.496Z,100794.03
2023-05-19T13:37:44.774Z,100801.75
2023-05-19T13:40:46.779Z,100795.16
2023-05-19T13:43:48.498Z,100800.53
2023-05-19T13:46:52.305Z,100762.06
2023-05-19T13:49:54.312Z,100791.91
2023-05-19T13:52:56.119Z,100794.75
2023-05-19T13:55:57.911Z,100788.25
2023-05-19T13:58:59.747Z,100789.47
2023-05-19T14:02:02.961Z,100788.97
2023-05-19T14:05:06.275Z,100799.31
2023-05-19T14:08:08.095Z,100786.06
2023-05-19T14:11:09.823Z,100777.00
2023-05-19T14:14:11.791Z,100773.59
2023-05-19T14:17:13.576Z,100814.25
2023-05-19T14:20:15.522Z,100804.19
2023-05-19T14:23:17.319Z,100810.06
2023-05-19T14:26:19.829Z,100813.88
2023-05-19T14:29:21.643Z,100821.31
2023-05-19T14:32:23.589Z,100814.78
2023-05-19T14:35:25.536Z,100810.47
2023-05-19T14:38:27.665Z,100812.91
2023-05-19T14:41:31.074Z,100819.00
2023-05-19T14:44:33.262Z,100819.25
2023-05-19T14:47:35.040Z,100802.81
2023-05-19T14:50:36.818Z,100801.84
2023-05-19T14:53:38.587Z,100799.50
2023-05-19T14:56:40.395Z,100805.28
2023-05-19T14:59:42.185Z,100782.97
2023-05-19T15:02:44.174Z,100801.78
2023-05-19T15:05:45.972Z,100807.91
2023-05-19T15:08:47.818Z,100793.38
2023-05-19T15:11:52.258Z,100803.13
2023-05-19T15:14:54.013Z,100796.81
2023-05-19T15:17:55.941Z,100752.16
2023-05-19T15:20:57.733Z,100773.00
2023-05-19T15:23:59.470Z,100796.41
2023-05-19T15:27:01.878Z,100782.44
2023-05-19T15:30:05.207Z,100781.69
2023-05-19T15:33:07.043Z,100797.28
2023-05-19T15:36:08.936Z,100782.44
2023-05-19T15:39:10.846Z,100776.22
2023-05-19T15:42:12.611Z,100789.25
2023-05-19T15:45:14.510Z,100786.84
2023-05-19T15:48:16.375Z,100797.31
2023-05-19T15:51:18.166Z,100781.09
2023-05-19T15:54:20.026Z,100752.91
2023-05-19T15:57:21.819Z,100787.66
2023-05-19T16:00:23.711Z,100785.88
2023-05-19T16:03:25.790Z,100794.63
2023-05-19T16:06:27.875Z,100783.97
2023-05-19T16:09:29.644Z,100791.63
2023-05-19T16:12:31.662Z,100805.28
2023-05-19T16:15:33.474Z,100770.19
2023-05-19T16:18:35.405Z,100807.13
2023-05-19T16:21:37.121Z,100801.44
2023-05-19T16:24:38.875Z,100805.97
2023-05-19T16:27:40.618Z,100796.75
2023-05-19T16:30:43.035Z,100797.28
2023-05-19T16:33:44.850Z,100791.50
2023-05-19T16:39:48.473Z,100795.22
2023-05-19T16:42:52.871Z,100796.47
2023-05-19T16:45:54.642Z,100804.19
2023-05-19T16:48:56.514Z,100811.19
2023-05-19T16:51:58.278Z,100814.06
2023-05-19T16:55:00.039Z,100814.56
2023-05-19T16:58:01.832Z,100762.31
2023-05-19T17:01:04.211Z,100805.03
2023-05-19T17:04:05.987Z,100814.38
2023-05-19T17:07:07.813Z,100806.72
2023-05-19T17:10:10.535Z,100811.13
2023-05-19T17:13:12.536Z,100771.78
2023-05-19T17:16:14.593Z,100794.94
2023-05-19T17:19:16.917Z,100820.94
2023-05-19T17:22:19.461Z,100819.53
2023-05-19T17:25:21.436Z,100817.72
2023-05-19T17:28:23.539Z,100822.22
2023-05-19T17:31:25.245Z,100816.56
2023-05-19T17:34:27.092Z,100831.97
2023-05-19T17:37:29.098Z,100828.81
2023-05-19T17:40:31.207Z,100831.84
2023-05-19T17:43:33.055Z,100826.84
2023-05-19T17:46:34.928Z,100833.22
2023-05-19T17:49:36.724Z,100824.53
2023-05-19T17:52:40.054Z,100819.28
2023-05-19T17:55:43.967Z,100830.78
2023-05-19T17:58:47.081Z,100818.72
2023-05-19T18:01:49.046Z,100808.47
2023-05-19T18:04:51.222Z,100767.16
2023-05-19T18:07:54.235Z,100829.97
2023-05-19T18:10:57.126Z,100829.97
2023-05-19T18:13:58.850Z,100831.06
2023-05-19T18:17:00.842Z,100836.41
2023-05-19T18:20:02.904Z,100831.78
2023-05-19T18:23:05.507Z,100846.97
2023-05-19T18:26:07.438Z,100845.34
2023-05-19T18:29:14.615Z,100864.94
2023-05-19T18:32:17.767Z,100853.34
2023-05-19T18:35:21.183Z,100863.22
2023-05-19T18:38:25.882Z,100869.00
2023-05-19T18:41:28.483Z,100857.03
2023-05-19T18:44:30.241Z,100871.53
2023-05-19T18:47:32.038Z,100861.56
2023-05-19T18:50:34.405Z,100867.94
2023-05-19T18:53:37.217Z,100874.78
2023-05-19T18:56:39.300Z,100878.47
2023-05-19T18:59:41.302Z,100870.81
2023-05-19T19:02:43.164Z,100877.63
2023-05-19T19:05:44.886Z,100847.81
2023-05-19T19:08:47.376Z,100889.00
2023-05-19T19:11:49.129Z,100888.66
2023-05-19T19:14:51.272Z,100893.88
2023-05-19T19:17:53.101Z,100864.16
2023-05-19T19:20:57.403Z,100895.50
2023-05-19T19:23:59.241Z,100899.09
2023-05-19T19:27:01.174Z,100902.81
2023-05-19T19:30:03.163Z,100902.44
2023-05-19T19:33:06.724Z,100859.66
2023-05-19T19:36:09.492Z,100913.47
2023-05-19T19:39:13.060Z,100900.66
2023-05-19T19:42:14.867Z,100885.53
2023-05-19T19:45:17.928Z,100907.72
2023-05-19T19:48:19.633Z,100899.00
2023-05-19T19:51:21.384Z,100910.84
2023-05-19T19:54:23.186Z,100888.31
2023-05-19T19:57:25.008Z,100854.72
2023-05-19T20:00:26.750Z,100905.72
2023-05-19T20:03:29.196Z,100913.69
2023-05-19T20:06:32.292Z,100924.66
2023-05-19T20:09:34.046Z,100908.09
2023-05-19T20:12:36.867Z,100917.13
2023-05-19T20:15:39.063Z,100913.03
2023-05-19T20:18:40.929Z,100916.94
2023-05-19T20:21:42.722Z,100907.22
2023-05-19T20:24:44.502Z,100921.97
2023-05-19T20:27:46.277Z,100913.34
2023-05-19T20:30:47.974Z,100914.66
2023-05-19T20:33:50.318Z,100922.25
2023-05-19T20:36:52.072Z,100912.16
2023-05-19T20:39:54.051Z,100899.59
2023-05-19T20:42:55.802Z,100917.44
2023-05-19T20:45:57.548Z,100871.63
2023-05-19T20:48:59.344Z,100914.78
2023-05-19T20:52:01.381Z,100908.88
2023-05-19T20:55:03.334Z,100916.84
2023-05-19T20:58:05.130Z,100899.84
2023-05-19T21:01:06.912Z,100926.03
2023-05-19T21:04:08.755Z,100920.31
2023-05-19T21:07:10.562Z,100920.31
2023-05-19T21:10:14.524Z,100933.22
2023-05-19T21:13:17.952Z,100940.34
2023-05-19T21:16:20.119Z,100930.91
2023-05-19T21:19:22.998Z,100934.47
2023-05-19T21:22:25.656Z,100931.22
2023-05-19T21:25:27.967Z,100936.78
2023-05-19T21:28:30.130Z,100928.41
2023-05-19T21:31:32.157Z,100925.25
2023-05-19T21:34:34.146Z,100924.09
2023-05-19T21:37:36.495Z,100933.88
2023-05-19T21:40:38.252Z,100939.19
2023-05-19T21:43:42.083Z,100950.09
2023-05-19T21:46:44.030Z,100959.13
2023-05-19T21:49:45.795Z,100933.97
2023-05-19T21:52:47.559Z,100945.44
2023-05-19T21:55:49.581Z,100931.66
2023-05-19T21:58:51.662Z,100944.66
2023-05-19T22:01:53.537Z,100946.41
2023-05-19T22:04:55.291Z,100932.47
2023-05-19T22:07:57.044Z,100948.34
2023-05-19T22:10:58.782Z,100942.41
2023-05-19T22:14:00.539Z,100923.41
2023-05-19T22:17:02.281Z,100934.78
2023-05-19T22:20:04.440Z,100947.31
2023-05-19T22:23:06.271Z,100932.50
2023-05-19T22:26:08.011Z,100963.25
2023-05-19T22:29:15.111Z,100940.59
2023-05-19T22:32:18.442Z,100953.75
2023-05-19T22:35:20.248Z,100930.31
2023-05-19T22:38:22.003Z,100932.03
2023-05-19T22:41:23.888Z,100943.56
2023-05-19T22:44:25.615Z,100936.59
2023-05-19T22:47:27.466Z,100950.03
2023-05-19T22:50:29.272Z,100950.16
2023-05-19T22:53:31.106Z,100941.50
2023-05-19T22:56:32.850Z,100949.47
2023-05-19T22:59:35.680Z,100945.28
2023-05-19T23:02:37.577Z,100941.09
2023-05-19T23:05:40.257Z,100941.13
2023-05-19T23:08:42.120Z,100936.94
2023-05-19T23:11:44.660Z,100935.25
2023-05-19T23:14:46.426Z,100932.78
2023-05-19T23:17:48.169Z,100892.16
2023-05-19T23:20:49.984Z,100934.88
2023-05-19T23:23:52.061Z,100921.09
2023-05-19T23:26:54.260Z,100942.31
2023-05-19T23:29:56.025Z,100920.59
2023-05-19T23:32:57.842Z,100913.63
2023-05-19T23:35:59.859Z,100925.03
2023-05-19T23:39:01.615Z,100925.44
2023-05-19T23:42:03.555Z,100929.84
2023-05-19T23:45:06.025Z,100913.44
2023-05-19T23:48:07.891Z,100916.13
2023-05-19T23:51:09.745Z,100912.13
2023-05-19T23:54:11.580Z,100923.63
2023-05-19T23:57:13.412Z,100830.13
